Time;durP1;ratioP1;P1;durP2;ratioP2;P2;SDS_P1;SDS_P2;PMS_P1;PMS_P2;Temp;Humidity;BMP_temperature;BMP_pressure;BME280_temperature;BME280_humidity;BME280_pressure;Samples;Min_cycle;Max_cycle;Signal;HPM_P1;HPM_P2
2021/10/06 00:00:13;;;;;;;3.72;1.20;;;11.20;99.90;;;;;;5053943;28;20021;-79
2021/10/06 00:02:39;;;;;;;1.88;0.80;;;11.20;99.90;;;;;;5054401;28;20059;-79
2021/10/06 00:05:05;;;;;;;5.07;0.95;;;11.20;99.90;;;;;;5057864;28;20429;-78
2021/10/06 00:07:31;;;;;;;16.50;4.20;;;11.20;99.90;;;;;;5058653;28;20063;-78
2021/10/06 00:09:56;;;;;;;11.55;1.50;;;11.10;99.90;;;;;;5055579;28;20543;-80
2021/10/06 00:12:22;;;;;;;1.92;0.88;;;11.10;99.90;;;;;;5056316;28;20032;-78
2021/10/06 00:14:47;;;;;;;2.63;0.80;;;11.10;99.90;;;;;;5056074;28;20021;-79
2021/10/06 00:17:13;;;;;;;1.80;0.77;;;11.00;99.90;;;;;;5056373;28;20461;-78
2021/10/06 00:19:38;;;;;;;2.15;0.65;;;11.00;99.90;;;;;;5055587;28;20052;-78
2021/10/06 00:22:04;;;;;;;0.63;0.40;;;11.00;99.90;;;;;;5063769;28;20032;-79
2021/10/06 00:24:30;;;;;;;2.70;0.88;;;11.00;99.90;;;;;;5065020;28;20036;-78
2021/10/06 00:26:55;;;;;;;1.70;1.10;;;11.00;99.90;;;;;;5048371;28;20032;-79
2021/10/06 00:29:21;;;;;;;1.63;0.77;;;11.00;99.90;;;;;;5043679;28;20029;-79
2021/10/06 00:31:47;;;;;;;0.75;0.70;;;11.00;99.90;;;;;;5059076;28;20021;-79
2021/10/06 00:34:13;;;;;;;4.47;1.05;;;11.10;99.90;;;;;;5068894;28;20131;-77
2021/10/06 00:36:39;;;;;;;2.08;0.95;;;11.00;99.90;;;;;;5066872;28;20025;-78
2021/10/06 00:39:04;;;;;;;2.38;0.70;;;11.00;99.90;;;;;;5063977;28;20496;-78
2021/10/06 00:41:30;;;;;;;0.63;0.52;;;11.00;99.90;;;;;;5060726;28;20036;-78
2021/10/06 00:43:55;;;;;;;2.95;0.70;;;10.90;99.90;;;;;;5062905;28;20104;-77
2021/10/06 00:46:21;;;;;;;3.08;0.70;;;10.90;99.90;;;;;;5062956;28;20057;-78
2021/10/06 00:48:46;;;;;;;1.98;0.65;;;10.80;99.90;;;;;;5070695;28;20469;-79
2021/10/06 00:51:13;;;;;;;3.40;0.70;;;10.70;99.90;;;;;;5061741;28;20025;-79
2021/10/06 00:53:39;;;;;;;1.40;0.60;;;10.60;99.90;;;;;;5058363;28;20043;-79
2021/10/06 00:56:05;;;;;;;4.55;0.77;;;10.70;99.90;;;;;;5062350;28;20025;-78
2021/10/06 00:58:31;;;;;;;2.28;0.90;;;10.70;99.90;;;;;;5082241;28;20036;-78
2021/10/06 01:00:56;;;;;;;1.58;0.80;;;10.70;99.90;;;;;;5079426;28;20146;-78
2021/10/06 01:03:22;;;;;;;3.47;0.68;;;10.70;99.90;;;;;;5110795;22;20060;-78
2021/10/06 01:05:53;;;;;;;2.08;0.80;;;10.70;99.90;;;;;;5077950;28;20029;-79
2021/10/06 01:08:19;;;;;;;4.65;0.75;;;10.70;99.90;;;;;;5085314;28;20064;-77
2021/10/06 01:10:46;;;;;;;1.83;0.52;;;10.80;99.90;;;;;;5084262;28;20024;-77
2021/10/06 01:13:15;;;;;;;1.85;0.60;;;10.80;99.90;;;;;;5094446;28;20084;-77
2021/10/06 01:15:44;;;;;;;2.60;0.63;;;10.70;99.90;;;;;;5091451;28;20024;-79
2021/10/06 01:18:10;;;;;;;3.85;0.70;;;10.70;99.90;;;;;;5070135;28;20028;-78
2021/10/06 01:20:36;;;;;;;3.53;1.00;;;10.60;99.90;;;;;;5074081;28;20044;-79
2021/10/06 01:23:02;;;;;;;1.35;0.70;;;10.50;99.90;;;;;;5084124;28;20021;-78
2021/10/06 01:25:27;;;;;;;5.97;1.05;;;10.50;99.90;;;;;;5080478;28;20027;-78
2021/10/06 01:27:53;;;;;;;5.18;0.77;;;10.60;99.90;;;;;;5063225;28;20049;-78
2021/10/06 01:30:19;;;;;;;2.88;0.63;;;10.60;99.90;;;;;;5076584;28;20044;-77
2021/10/06 01:32:46;;;;;;;2.40;1.00;;;10.70;99.90;;;;;;5093833;28;20020;-77
2021/10/06 01:35:14;;;;;;;4.13;0.90;;;10.90;99.90;;;;;;5084011;28;20111;-78
2021/10/06 01:37:42;;;;;;;2.42;0.70;;;11.10;99.90;;;;;;5086380;28;20024;-78
2021/10/06 01:40:11;;;;;;;1.45;0.73;;;10.90;99.90;;;;;;5082545;28;20044;-78
2021/10/06 01:42:37;;;;;;;3.80;0.70;;;10.70;99.90;;;;;;5088503;28;20027;-77
2021/10/06 01:45:04;;;;;;;3.72;1.10;;;10.60;99.90;;;;;;5086298;28;20020;-77
2021/10/06 01:47:29;;;;;;;5.68;1.05;;;10.60;99.90;;;;;;5085371;28;20038;-78
2021/10/06 01:49:55;;;;;;;2.65;0.80;;;10.40;99.90;;;;;;5084598;28;20084;-78
2021/10/06 01:52:23;;;;;;;2.08;0.73;;;10.40;99.90;;;;;;5080001;28;20025;-78
2021/10/06 01:54:50;;;;;;;2.95;1.00;;;10.30;99.90;;;;;;5066229;28;20138;-78
2021/10/06 01:57:16;;;;;;;1.92;0.70;;;10.30;99.90;;;;;;5082396;28;20031;-78
2021/10/06 01:59:45;;;;;;;3.33;0.70;;;10.20;99.90;;;;;;5067999;28;20025;-78
2021/10/06 02:02:11;;;;;;;3.25;1.40;;;10.10;99.90;;;;;;5067003;28;20063;-77
2021/10/06 02:04:37;;;;;;;2.20;0.60;;;10.10;99.90;;;;;;5091283;28;20024;-77
2021/10/06 02:07:03;;;;;;;3.00;0.80;;;10.10;99.90;;;;;;5082614;28;20029;-78
2021/10/06 02:09:28;;;;;;;1.35;0.82;;;10.10;99.90;;;;;;5079213;28;20029;-78
2021/10/06 02:11:54;;;;;;;5.70;1.13;;;10.10;99.90;;;;;;5090022;28;20040;-77
2021/10/06 02:14:20;;;;;;;2.95;0.80;;;10.00;99.90;;;;;;5092729;28;20070;-78
2021/10/06 02:16:45;;;;;;;2.13;0.95;;;10.10;99.90;;;;;;5089912;28;20104;-77
2021/10/06 02:19:11;;;;;;;4.28;1.33;;;10.10;99.90;;;;;;5096960;28;20032;-78
2021/10/06 02:21:37;;;;;;;5.07;0.90;;;10.10;99.90;;;;;;5080224;28;20034;-77
2021/10/06 02:24:04;;;;;;;5.07;0.90;;;10.10;99.90;;;;;;5061733;28;20032;-78
2021/10/06 02:26:30;;;;;;;1.95;0.70;;;10.10;99.90;;;;;;5085863;28;20092;-78
2021/10/06 02:28:55;;;;;;;0.70;0.63;;;10.10;99.90;;;;;;5081034;28;20058;-78
2021/10/06 02:31:21;;;;;;;2.90;0.88;;;10.10;99.90;;;;;;5076635;28;20024;-77
2021/10/06 02:33:46;;;;;;;4.07;1.23;;;10.10;99.90;;;;;;5079602;28;20039;-75
2021/10/06 02:36:12;;;;;;;2.53;0.85;;;10.10;99.90;;;;;;5088590;28;20042;-76
2021/10/06 02:38:38;;;;;;;1.73;0.90;;;10.10;99.90;;;;;;5095635;28;20029;-77
2021/10/06 02:41:03;;;;;;;2.10;1.00;;;10.00;99.90;;;;;;5086424;28;20065;-77
2021/10/06 02:43:29;;;;;;;2.55;0.90;;;10.00;99.90;;;;;;5083257;28;20029;-78
2021/10/06 02:45:54;;;;;;;3.45;0.95;;;9.90;99.90;;;;;;5081096;28;20082;-77
2021/10/06 02:48:21;;;;;;;2.97;0.70;;;9.90;99.90;;;;;;5082147;28;20039;-78
2021/10/06 02:50:47;;;;;;;1.13;0.90;;;9.80;99.90;;;;;;5067956;28;20046;-78
2021/10/06 02:53:13;;;;;;;3.65;1.08;;;9.70;99.90;;;;;;5080827;28;20016;-78
2021/10/06 02:55:39;;;;;;;3.03;0.70;;;9.70;99.90;;;;;;5087362;28;20106;-76
2021/10/06 02:58:04;;;;;;;1.52;0.85;;;9.70;99.90;;;;;;5069305;28;20039;-77
2021/10/06 03:00:30;;;;;;;3.58;1.13;;;9.80;99.90;;;;;;5084634;28;20020;-77
2021/10/06 03:02:55;;;;;;;1.75;0.70;;;9.80;99.90;;;;;;5083793;28;20092;-77
2021/10/06 03:05:21;;;;;;;2.40;0.73;;;9.80;99.90;;;;;;5084486;28;20029;-77
2021/10/06 03:07:46;;;;;;;2.97;0.95;;;9.70;99.90;;;;;;5080533;28;20032;-78
2021/10/06 03:10:12;;;;;;;3.33;0.90;;;9.80;99.90;;;;;;5061964;28;20031;-78
2021/10/06 03:12:38;;;;;;;2.28;0.82;;;9.90;99.90;;;;;;5080189;28;20096;-78
2021/10/06 03:15:05;;;;;;;2.67;1.15;;;10.00;99.90;;;;;;5058820;28;20442;-78
2021/10/06 03:17:31;;;;;;;3.65;0.82;;;10.00;99.90;;;;;;5066937;28;20032;-78
2021/10/06 03:19:56;;;;;;;2.05;0.80;;;10.00;99.90;;;;;;5082890;28;20396;-78
2021/10/06 03:22:22;;;;;;;2.45;0.80;;;10.10;99.90;;;;;;5084765;28;20292;-79
2021/10/06 03:24:48;;;;;;;3.28;1.20;;;10.10;99.90;;;;;;5082791;28;20020;-78
2021/10/06 03:27:16;;;;;;;2.72;1.00;;;10.20;99.90;;;;;;5084645;28;20494;-77
2021/10/06 03:29:42;;;;;;;1.77;0.80;;;10.20;99.90;;;;;;5081777;28;20027;-78
2021/10/06 03:32:08;;;;;;;3.55;1.20;;;10.30;99.90;;;;;;5061247;28;20028;-78
2021/10/06 03:34:34;;;;;;;1.73;0.70;;;10.30;99.90;;;;;;5078737;28;20020;-77
2021/10/06 03:36:59;;;;;;;3.42;0.93;;;10.40;99.90;;;;;;5062132;28;20569;-77
2021/10/06 03:39:25;;;;;;;1.67;0.73;;;10.40;99.90;;;;;;5078245;28;20024;-78
2021/10/06 03:41:50;;;;;;;2.58;1.20;;;10.40;99.90;;;;;;5057294;28;20029;-78
2021/10/06 03:44:16;;;;;;;3.75;0.95;;;10.40;99.90;;;;;;5071532;28;20048;-78
2021/10/06 03:46:41;;;;;;;2.28;0.70;;;10.40;99.90;;;;;;5073346;28;20036;-77
2021/10/06 03:49:07;;;;;;;1.90;0.90;;;10.40;99.90;;;;;;5080086;28;20038;-78
2021/10/06 03:51:33;;;;;;;1.58;0.75;;;10.40;99.90;;;;;;5074154;28;20032;-77
2021/10/06 03:53:58;;;;;;;2.40;0.93;;;10.40;99.90;;;;;;5076090;28;20028;-78
2021/10/06 03:56:24;;;;;;;2.58;1.08;;;10.40;99.90;;;;;;5079454;28;20099;-76
2021/10/06 03:58:50;;;;;;;5.40;1.70;;;10.50;99.90;;;;;;5079537;28;20028;-76
2021/10/06 04:01:15;;;;;;;3.13;1.10;;;10.50;99.90;;;;;;5070023;28;20032;-78
2021/10/06 04:03:41;;;;;;;1.70;0.80;;;10.50;99.90;;;;;;5095075;28;20020;-76
2021/10/06 04:06:07;;;;;;;2.15;0.63;;;10.60;99.90;;;;;;5096939;28;20089;-78
2021/10/06 04:08:32;;;;;;;2.97;0.70;;;10.60;99.90;;;;;;5085937;28;20025;-78
2021/10/06 04:10:58;;;;;;;4.75;0.90;;;10.60;99.90;;;;;;5068415;28;20028;-78
2021/10/06 04:13:24;;;;;;;1.02;0.70;;;10.70;99.90;;;;;;5091791;28;20024;-77
2021/10/06 04:15:50;;;;;;;1.42;0.80;;;10.70;99.90;;;;;;5090368;28;20085;-78
2021/10/06 04:18:15;;;;;;;0.60;0.52;;;10.70;99.90;;;;;;5090955;28;20033;-76
2021/10/06 04:20:41;;;;;;;2.00;0.70;;;10.70;99.90;;;;;;5095734;28;20036;-77
2021/10/06 04:23:06;;;;;;;2.70;0.52;;;10.60;99.90;;;;;;5090034;28;20114;-77
2021/10/06 04:25:32;;;;;;;4.28;1.25;;;10.60;99.90;;;;;;5084228;28;20108;-77
2021/10/06 04:27:58;;;;;;;2.95;0.80;;;10.60;99.90;;;;;;5087768;28;20024;-78
2021/10/06 04:30:24;;;;;;;4.10;1.00;;;10.60;99.90;;;;;;5082887;28;20577;-78
2021/10/06 04:32:49;;;;;;;1.33;0.80;;;10.60;99.90;;;;;;5065946;28;20044;-78
2021/10/06 04:35:15;;;;;;;4.38;0.88;;;10.60;99.90;;;;;;5087461;28;20025;-77
2021/10/06 04:37:41;;;;;;;2.90;1.05;;;10.70;99.90;;;;;;5087737;28;20052;-77
2021/10/06 04:40:08;;;;;;;1.52;0.88;;;10.60;99.90;;;;;;5087784;28;20146;-78
2021/10/06 04:42:34;;;;;;;1.10;0.65;;;10.70;99.90;;;;;;5086899;28;20025;-78
2021/10/06 04:45:00;;;;;;;1.83;1.13;;;10.60;99.90;;;;;;5067727;28;20020;-79
2021/10/06 04:47:25;;;;;;;4.20;0.90;;;10.60;99.90;;;;;;5088487;28;20028;-78
2021/10/06 04:49:51;;;;;;;2.10;0.98;;;10.60;99.90;;;;;;5069943;28;20025;-77
2021/10/06 04:52:17;;;;;;;2.83;1.05;;;10.60;99.90;;;;;;5089176;28;20044;-78
2021/10/06 04:54:42;;;;;;;2.17;0.90;;;10.60;99.90;;;;;;5070353;28;20082;-79
2021/10/06 04:57:08;;;;;;;1.55;1.10;;;10.70;99.90;;;;;;5080493;28;20029;-79
2021/10/06 04:59:34;;;;;;;2.53;0.80;;;10.70;99.90;;;;;;5081154;28;20093;-79
2021/10/06 05:02:00;;;;;;;1.00;0.77;;;10.80;99.90;;;;;;5082050;28;20115;-78
2021/10/06 05:04:26;;;;;;;0.98;0.70;;;10.70;99.90;;;;;;5079397;28;20092;-78
2021/10/06 05:06:52;;;;;;;0.93;0.60;;;10.70;99.90;;;;;;5040306;28;20037;-78
2021/10/06 05:09:18;;;;;;;3.30;0.88;;;10.70;99.90;;;;;;5080849;28;20392;-78
2021/10/06 05:11:44;;;;;;;3.10;0.90;;;10.70;99.90;;;;;;5079770;28;20090;-78
2021/10/06 05:14:09;;;;;;;2.53;0.70;;;10.70;99.90;;;;;;5069531;28;20025;-77
2021/10/06 05:16:35;;;;;;;1.75;0.65;;;10.70;99.90;;;;;;5087373;28;20021;-80
2021/10/06 05:19:00;;;;;;;2.15;0.60;;;10.70;99.90;;;;;;5083218;28;20033;-78
2021/10/06 05:21:26;;;;;;;3.00;1.55;;;10.70;99.90;;;;;;5080331;28;20028;-77
2021/10/06 05:23:51;;;;;;;1.65;0.98;;;10.70;99.90;;;;;;5082848;28;20111;-77
2021/10/06 05:26:17;;;;;;;2.72;0.98;;;10.70;99.90;;;;;;5087531;28;20029;-78
2021/10/06 05:28:43;;;;;;;1.48;0.60;;;10.70;99.90;;;;;;5080949;28;20039;-78
2021/10/06 05:31:09;;;;;;;1.23;1.08;;;10.70;99.90;;;;;;5083512;28;20039;-79
2021/10/06 05:33:34;;;;;;;1.77;0.60;;;10.80;99.90;;;;;;5091246;28;20032;-77
2021/10/06 05:36:02;;;;;;;1.88;0.90;;;10.80;99.90;;;;;;5083168;28;20050;-78
2021/10/06 05:38:29;;;;;;;4.10;0.60;;;10.80;99.90;;;;;;5091732;28;20080;-77
2021/10/06 05:40:54;;;;;;;1.67;0.80;;;10.80;99.90;;;;;;5068143;28;20029;-76
2021/10/06 05:43:20;;;;;;;3.78;0.80;;;10.70;99.90;;;;;;5097516;28;20166;-76
2021/10/06 05:45:46;;;;;;;1.92;0.88;;;10.70;99.90;;;;;;5097902;28;20028;-77
2021/10/06 05:48:13;;;;;;;4.60;0.90;;;10.70;99.90;;;;;;5087549;28;20535;-77
2021/10/06 05:50:39;;;;;;;1.95;0.80;;;10.60;99.90;;;;;;5083483;28;20047;-78
2021/10/06 05:53:05;;;;;;;2.03;0.80;;;10.70;99.90;;;;;;5087448;28;20025;-76
2021/10/06 05:55:32;;;;;;;3.15;0.73;;;10.70;99.90;;;;;;5071529;28;20032;-77
2021/10/06 05:57:58;;;;;;;1.80;0.60;;;10.70;99.90;;;;;;5081848;28;20025;-78
2021/10/06 06:00:23;;;;;;;1.30;0.68;;;10.70;99.90;;;;;;5086916;28;20055;-76
2021/10/06 06:02:49;;;;;;;2.33;0.80;;;10.70;99.90;;;;;;5083838;28;20041;-77
2021/10/06 06:05:17;;;;;;;2.85;0.60;;;10.80;99.90;;;;;;5081855;28;20480;-78
2021/10/06 06:07:43;;;;;;;3.35;1.40;;;10.80;99.90;;;;;;5077051;28;20025;-79
2021/10/06 06:10:10;;;;;;;2.60;1.05;;;10.70;99.90;;;;;;5085240;28;20043;-78
2021/10/06 06:12:35;;;;;;;2.03;1.00;;;10.70;99.90;;;;;;5072005;28;20035;-77
2021/10/06 06:15:01;;;;;;;3.45;0.82;;;10.70;99.90;;;;;;5091867;28;20099;-78
2021/10/06 06:17:27;;;;;;;1.52;1.00;;;10.60;99.90;;;;;;5068567;28;20032;-78
2021/10/06 06:19:52;;;;;;;2.35;0.70;;;10.60;99.90;;;;;;5083581;28;20576;-77
2021/10/06 06:22:18;;;;;;;1.73;0.85;;;10.60;99.90;;;;;;5082744;28;20226;-78
2021/10/06 06:24:44;;;;;;;2.00;0.95;;;10.60;99.90;;;;;;5081456;28;20531;-78
2021/10/06 06:27:10;;;;;;;3.30;1.10;;;10.60;99.90;;;;;;5078457;28;20033;-79
2021/10/06 06:29:36;;;;;;;4.40;0.90;;;10.50;99.90;;;;;;5084157;28;20027;-77
2021/10/06 06:32:02;;;;;;;1.95;1.50;;;10.50;99.90;;;;;;5080556;28;20084;-79
2021/10/06 06:34:28;;;;;;;4.03;0.88;;;10.50;99.90;;;;;;5082217;28;20115;-79
2021/10/06 06:36:53;;;;;;;3.97;1.10;;;10.50;99.90;;;;;;5089646;28;20025;-77
2021/10/06 06:39:19;;;;;;;3.03;1.13;;;10.50;99.90;;;;;;5093452;28;20032;-79
2021/10/06 06:41:45;;;;;;;4.53;1.40;;;10.60;99.90;;;;;;5085237;28;20048;-80
2021/10/06 06:44:11;;;;;;;4.82;2.65;;;10.60;99.90;;;;;;5093810;28;20035;-77
2021/10/06 06:46:37;;;;;;;2.35;0.95;;;10.70;99.90;;;;;;5093452;28;20016;-76
2021/10/06 06:49:04;;;;;;;2.47;0.70;;;10.80;99.90;;;;;;5079979;28;20044;-78
2021/10/06 06:51:30;;;;;;;4.65;1.02;;;10.80;99.90;;;;;;5087587;28;20029;-78
2021/10/06 06:53:55;;;;;;;0.93;0.73;;;10.80;99.90;;;;;;5095648;28;20040;-76
2021/10/06 06:56:22;;;;;;;3.67;1.60;;;10.90;99.90;;;;;;5096571;28;20064;-77
2021/10/06 06:58:49;;;;;;;2.05;0.90;;;10.90;99.90;;;;;;5094933;28;20032;-76
2021/10/06 07:01:16;;;;;;;2.90;1.02;;;11.10;99.90;;;;;;5095342;28;20047;-79
2021/10/06 07:03:41;;;;;;;2.05;0.90;;;11.10;99.90;;;;;;5126212;22;20059;-80
2021/10/06 07:06:07;;;;;;;3.03;1.00;;;11.20;99.90;;;;;;5089397;28;20016;-81
2021/10/06 07:08:33;;;;;;;2.58;1.00;;;11.20;99.90;;;;;;5092371;28;20012;-79
2021/10/06 07:10:58;;;;;;;1.88;0.88;;;11.20;99.90;;;;;;5085384;28;20059;-80
2021/10/06 07:13:24;;;;;;;4.43;1.17;;;11.20;99.90;;;;;;5115004;28;20064;-81
2021/10/06 07:15:49;;;;;;;4.70;1.10;;;11.30;99.90;;;;;;5089284;28;20055;-82
2021/10/06 07:18:16;;;;;;;6.03;0.88;;;11.30;99.90;;;;;;5096963;28;20028;-83
2021/10/06 07:20:42;;;;;;;3.40;1.60;;;11.50;99.90;;;;;;5083023;28;20403;-81
2021/10/06 07:23:07;;;;;;;3.05;1.00;;;11.60;99.90;;;;;;5083944;28;20028;-84
2021/10/06 07:25:33;;;;;;;3.05;1.38;;;11.60;99.90;;;;;;5080286;28;20487;-83
2021/10/06 07:27:59;;;;;;;5.40;0.93;;;11.60;99.90;;;;;;5078852;28;20115;-84
2021/10/06 07:30:24;;;;;;;3.38;1.10;;;11.70;99.90;;;;;;5099099;28;20028;-79
2021/10/06 07:32:50;;;;;;;2.17;0.88;;;11.90;99.90;;;;;;5078930;28;20031;-79
2021/10/06 07:35:16;;;;;;;1.45;0.80;;;12.10;99.90;;;;;;5090250;28;20024;-80
2021/10/06 07:37:42;;;;;;;7.07;1.10;;;12.30;99.90;;;;;;5095921;28;20031;-78
2021/10/06 07:40:08;;;;;;;6.78;0.90;;;12.40;99.90;;;;;;5105509;28;20290;-77
2021/10/06 07:42:33;;;;;;;3.92;1.23;;;12.50;99.90;;;;;;5095909;28;20031;-79
2021/10/06 07:44:59;;;;;;;1.60;0.82;;;12.70;99.90;;;;;;5098072;28;20028;-78
2021/10/06 07:47:25;;;;;;;2.90;0.82;;;12.80;99.90;;;;;;5094416;28;20023;-77
2021/10/06 07:49:51;;;;;;;3.58;1.40;;;12.80;99.90;;;;;;5095426;28;20206;-77
2021/10/06 07:52:16;;;;;;;2.95;0.90;;;12.90;99.90;;;;;;5067199;28;20024;-77
2021/10/06 07:54:42;;;;;;;2.45;0.82;;;13.00;99.90;;;;;;5077809;28;20029;-77
2021/10/06 07:57:07;;;;;;;2.22;0.80;;;13.00;99.90;;;;;;5084847;28;20044;-77
2021/10/06 07:59:34;;;;;;;3.42;0.88;;;13.10;99.90;;;;;;5099948;28;20033;-77
2021/10/06 08:02:01;;;;;;;1.73;0.68;;;13.00;99.90;;;;;;5087628;28;20485;-78
2021/10/06 08:04:27;;;;;;;4.35;0.77;;;13.10;99.90;;;;;;5077666;28;20032;-77
2021/10/06 08:06:52;;;;;;;2.13;0.70;;;13.00;99.90;;;;;;5094541;28;20039;-78
2021/10/06 08:09:19;;;;;;;3.85;0.77;;;13.00;99.90;;;;;;5102085;28;20051;-77
2021/10/06 08:11:44;;;;;;;2.97;0.85;;;13.00;99.90;;;;;;5103745;28;20073;-77
2021/10/06 08:14:10;;;;;;;4.57;1.13;;;13.10;99.90;;;;;;5100823;28;20072;-76
2021/10/06 08:16:36;;;;;;;6.00;1.45;;;13.20;99.90;;;;;;5103879;28;20024;-76
2021/10/06 08:19:02;;;;;;;5.35;1.60;;;13.30;99.90;;;;;;5094244;28;20020;-77
2021/10/06 08:21:27;;;;;;;3.03;1.30;;;13.30;99.90;;;;;;5072939;28;20025;-76
2021/10/06 08:23:53;;;;;;;3.13;0.70;;;13.40;99.90;;;;;;5080125;28;20089;-78
2021/10/06 08:26:19;;;;;;;4.78;2.80;;;13.30;99.90;;;;;;5102130;28;20036;-78
2021/10/06 08:28:45;;;;;;;3.55;1.05;;;13.40;99.90;;;;;;5102864;28;20024;-78
2021/10/06 08:31:10;;;;;;;4.78;1.35;;;13.40;99.90;;;;;;5077449;28;20096;-78
2021/10/06 08:33:36;;;;;;;4.55;1.90;;;13.60;99.90;;;;;;5090284;28;20050;-77
2021/10/06 08:36:02;;;;;;;5.22;1.08;;;13.50;99.90;;;;;;5101761;28;20043;-79
2021/10/06 08:38:27;;;;;;;2.35;0.80;;;13.40;99.90;;;;;;5093431;28;20491;-77
2021/10/06 08:40:53;;;;;;;2.47;0.90;;;13.60;99.90;;;;;;5092965;28;20147;-79
2021/10/06 08:43:19;;;;;;;4.25;1.13;;;13.40;99.90;;;;;;5081050;28;20051;-78
2021/10/06 08:45:45;;;;;;;4.65;1.10;;;13.40;99.90;;;;;;5084380;28;20028;-77
2021/10/06 08:48:11;;;;;;;3.15;1.63;;;13.30;99.90;;;;;;5081132;28;20035;-77
2021/10/06 08:50:38;;;;;;;2.10;0.70;;;13.20;99.90;;;;;;5073388;28;20028;-78
2021/10/06 08:53:04;;;;;;;2.35;0.80;;;13.20;99.90;;;;;;5104810;28;20024;-77
2021/10/06 08:55:31;;;;;;;2.47;1.13;;;13.20;99.90;;;;;;5084661;28;20027;-77
2021/10/06 08:58:01;;;;;;;2.53;0.70;;;13.20;99.90;;;;;;5097942;28;20562;-77
2021/10/06 09:00:28;;;;;;;3.03;0.60;;;13.20;99.90;;;;;;5084800;28;20031;-78
2021/10/06 09:02:54;;;;;;;2.58;0.88;;;13.30;99.90;;;;;;5096700;28;20056;-76
2021/10/06 09:05:22;;;;;;;2.47;0.75;;;13.30;99.90;;;;;;5108464;28;20021;-78
2021/10/06 09:08:01;;;;;;;4.97;1.35;;;13.50;99.90;;;;;;5084520;28;20021;-78
2021/10/06 09:10:28;;;;;;;1.88;0.80;;;13.70;99.90;;;;;;5085078;28;20036;-78
2021/10/06 09:13:02;;;;;;;4.70;1.20;;;13.90;99.90;;;;;;5104322;28;20103;-79
2021/10/06 09:15:40;;;;;;;2.90;0.70;;;14.00;99.90;;;;;;5102492;28;20025;-80
2021/10/06 09:18:12;;;;;;;1.40;0.73;;;14.10;99.90;;;;;;5089102;28;20024;-80
2021/10/06 09:20:38;;;;;;;3.15;1.20;;;14.10;99.90;;;;;;5081901;28;20028;-79
2021/10/06 09:23:07;;;;;;;4.72;0.95;;;14.10;99.90;;;;;;5100535;28;20032;-80
2021/10/06 09:25:52;;;;;;;7.32;2.28;;;14.20;99.90;;;;;;5103485;28;20024;-78
2021/10/06 09:28:18;;;;;;;3.15;1.05;;;14.20;99.90;;;;;;5100200;28;20035;-80
2021/10/06 09:30:44;;;;;;;4.35;0.88;;;14.30;99.90;;;;;;5080869;28;20095;-78
2021/10/06 09:33:10;;;;;;;3.65;1.75;;;14.30;99.90;;;;;;5097359;28;20039;-79
2021/10/06 09:35:35;;;;;;;3.22;0.70;;;14.50;99.90;;;;;;5101297;28;20027;-79
2021/10/06 09:38:01;;;;;;;2.65;0.70;;;14.70;99.90;;;;;;5101103;28;20028;-79
2021/10/06 09:40:29;;;;;;;2.38;0.80;;;14.60;99.90;;;;;;5098108;28;20028;-80
2021/10/06 09:43:00;;;;;;;4.45;0.90;;;14.70;99.90;;;;;;5105513;28;20042;-80
2021/10/06 09:45:31;;;;;;;1.20;0.60;;;14.70;99.90;;;;;;5109884;28;20024;-79
2021/10/06 09:48:00;;;;;;;5.10;1.38;;;14.70;99.90;;;;;;5102538;28;20047;-80
2021/10/06 09:50:26;;;;;;;5.88;1.17;;;14.80;99.90;;;;;;5077698;28;20070;-80
2021/10/06 09:52:53;;;;;;;2.80;1.00;;;14.60;99.90;;;;;;5099085;28;20056;-80
2021/10/06 09:55:19;;;;;;;2.00;0.55;;;14.70;99.90;;;;;;5085908;28;20032;-80
2021/10/06 09:57:45;;;;;;;5.75;1.02;;;14.60;99.90;;;;;;5099695;28;20039;-80
2021/10/06 10:00:18;;;;;;;3.53;0.90;;;14.80;99.90;;;;;;5101011;28;20023;-79
2021/10/06 10:02:44;;;;;;;4.57;0.77;;;14.80;99.90;;;;;;5107718;28;20020;-80
2021/10/06 10:05:12;;;;;;;2.28;0.70;;;14.60;99.90;;;;;;5097397;28;20395;-80
2021/10/06 10:07:38;;;;;;;2.85;0.75;;;14.40;99.90;;;;;;5061525;28;20056;-80
2021/10/06 10:10:06;;;;;;;0.73;0.40;;;14.00;99.90;;;;;;5102668;28;20028;-80
2021/10/06 10:12:32;;;;;;;3.25;0.70;;;13.60;99.90;;;;;;5087534;28;20051;-80
2021/10/06 10:14:58;;;;;;;2.10;0.65;;;13.30;99.90;;;;;;5109237;28;20024;-79
2021/10/06 10:17:25;;;;;;;2.50;0.85;;;13.20;99.90;;;;;;5083440;28;20032;-80
2021/10/06 10:20:06;;;;;;;3.25;0.70;;;13.30;99.90;;;;;;5077713;28;20028;-80
2021/10/06 10:22:36;;;;;;;2.72;0.60;;;13.10;99.90;;;;;;5092519;28;20463;-78
2021/10/06 10:25:27;;;;;;;1.60;0.55;;;12.80;99.90;;;;;;5090950;28;20023;-80
2021/10/06 10:28:04;;;;;;;3.88;0.80;;;12.80;99.90;;;;;;5098230;28;20043;-78
2021/10/06 10:30:32;;;;;;;2.20;0.60;;;12.90;99.90;;;;;;5099511;27;20036;-79
2021/10/06 10:32:58;;;;;;;2.63;0.65;;;13.20;99.90;;;;;;5092615;28;20024;-79
2021/10/06 10:35:33;;;;;;;1.65;0.50;;;13.40;99.90;;;;;;5094711;27;20083;-78
2021/10/06 10:38:01;;;;;;;2.25;0.63;;;13.40;99.90;;;;;;5114619;27;20055;-79
2021/10/06 10:40:42;;;;;;;2.65;0.60;;;13.60;99.90;;;;;;5079663;28;20032;-80
2021/10/06 10:43:34;;;;;;;2.33;0.73;;;13.80;99.90;;;;;;5094060;28;20043;-79
2021/10/06 10:45:59;;;;;;;1.50;0.68;;;13.90;99.90;;;;;;5082419;28;20044;-79
2021/10/06 10:48:29;;;;;;;3.78;0.70;;;14.10;99.90;;;;;;5105649;28;20036;-80
2021/10/06 10:50:58;;;;;;;2.22;0.60;;;14.10;99.90;;;;;;5088753;28;20036;-79
2021/10/06 10:53:45;;;;;;;2.97;0.93;;;14.10;99.90;;;;;;5071179;28;20054;-78
2021/10/06 10:56:11;;;;;;;2.88;1.00;;;14.20;99.90;;;;;;5083092;28;20028;-79
2021/10/06 10:58:39;;;;;;;3.47;1.08;;;14.40;99.90;;;;;;5103467;28;20056;-80
2021/10/06 11:01:06;;;;;;;2.78;0.70;;;14.70;99.90;;;;;;5068680;28;20063;-78
2021/10/06 11:03:33;;;;;;;1.00;0.80;;;14.60;99.90;;;;;;5102172;28;20144;-81
2021/10/06 11:05:58;;;;;;;0.90;0.65;;;14.50;99.90;;;;;;5086145;28;20028;-80
2021/10/06 11:08:26;;;;;;;1.55;0.88;;;14.50;99.90;;;;;;5103160;28;20032;-82
2021/10/06 11:11:13;;;;;;;2.25;0.70;;;14.70;99.90;;;;;;5097491;28;20040;-80
2021/10/06 11:13:40;;;;;;;2.08;0.60;;;14.60;99.90;;;;;;5083092;28;20024;-81
2021/10/06 11:16:07;;;;;;;2.17;1.20;;;14.80;99.90;;;;;;5102914;28;20028;-77
2021/10/06 11:18:46;;;;;;;5.25;2.33;;;14.80;99.90;;;;;;5090837;28;20044;-76
2021/10/06 11:21:12;;;;;;;3.05;0.63;;;14.80;99.90;;;;;;5070394;28;20025;-76
2021/10/06 11:23:43;;;;;;;2.35;0.88;;;14.70;99.90;;;;;;5091587;28;20086;-77
2021/10/06 11:26:10;;;;;;;3.20;0.85;;;14.90;99.90;;;;;;5087684;28;20035;-77
2021/10/06 11:28:41;;;;;;;1.67;1.10;;;15.10;99.90;;;;;;5070231;28;20036;-76
2021/10/06 11:31:07;;;;;;;;;;;15.20;99.90;;;;;;5084043;28;20035;-77
2021/10/06 11:33:34;;;;;;;0.98;0.47;;;15.30;99.90;;;;;;5089223;28;19928;-78
2021/10/06 11:36:07;;;;;;;4.43;1.15;;;15.40;99.90;;;;;;5091764;28;20024;-78
2021/10/06 11:38:33;;;;;;;2.05;0.55;;;15.50;99.90;;;;;;5090158;28;20024;-79
2021/10/06 11:40:58;;;;;;;2.45;0.98;;;15.30;99.90;;;;;;5095363;28;20506;-79
2021/10/06 11:43:24;;;;;;;2.58;0.65;;;15.30;99.90;;;;;;5091977;28;20024;-78
2021/10/06 11:45:50;;;;;;;1.33;0.60;;;15.20;99.90;;;;;;5082312;28;20043;-78
2021/10/06 11:48:15;;;;;;;3.65;0.93;;;15.40;99.90;;;;;;5100229;28;20034;-78
2021/10/06 11:50:42;;;;;;;3.63;0.63;;;15.20;99.90;;;;;;5113008;28;20020;-77
2021/10/06 11:53:08;;;;;;;1.05;0.60;;;15.30;99.90;;;;;;5097288;28;20024;-76
2021/10/06 11:55:34;;;;;;;1.75;0.60;;;15.30;99.90;;;;;;5090479;28;20058;-78
2021/10/06 11:57:59;;;;;;;1.58;0.60;;;15.50;99.90;;;;;;5097100;28;20032;-77
2021/10/06 12:00:25;;;;;;;1.90;0.50;;;15.40;99.90;;;;;;5101780;28;20446;-78
2021/10/06 12:02:57;;;;;;;0.60;0.40;;;15.50;99.90;;;;;;5102035;28;20110;-77
2021/10/06 12:05:23;;;;;;;1.33;0.47;;;15.40;99.90;;;;;;5102906;28;20027;-76
2021/10/06 12:07:49;;;;;;;3.30;0.52;;;15.60;99.90;;;;;;5104892;28;20496;-77
2021/10/06 12:10:14;;;;;;;3.63;0.60;;;15.60;99.90;;;;;;5082138;28;20032;-79
2021/10/06 12:12:40;;;;;;;3.67;1.13;;;15.50;99.90;;;;;;5099927;28;20081;-76
2021/10/06 12:15:07;;;;;;;3.47;0.60;;;15.30;99.90;;;;;;5101867;28;20016;-77
2021/10/06 12:17:37;;;;;;;3.47;1.00;;;15.30;99.90;;;;;;5104123;28;20398;-78
2021/10/06 12:20:06;;;;;;;2.03;0.75;;;15.30;99.90;;;;;;5102088;28;20035;-79
2021/10/06 12:22:33;;;;;;;2.67;0.70;;;15.20;99.90;;;;;;5095468;28;20031;-77
2021/10/06 12:25:00;;;;;;;2.33;0.82;;;15.00;99.90;;;;;;5082967;28;20036;-75
2021/10/06 12:27:31;;;;;;;1.15;0.70;;;14.60;99.90;;;;;;5102816;28;20024;-77
2021/10/06 12:30:08;;;;;;;0.77;0.50;;;14.20;99.90;;;;;;5107034;28;20083;-78
2021/10/06 12:32:35;;;;;;;1.20;0.30;;;13.50;99.90;;;;;;5104486;28;20042;-77
2021/10/06 12:35:06;;;;;;;2.97;0.60;;;13.00;99.90;;;;;;5099695;28;20024;-77
2021/10/06 12:37:31;;;;;;;1.05;0.40;;;12.80;99.90;;;;;;5083565;28;20103;-77
2021/10/06 12:39:57;;;;;;;1.83;0.40;;;12.60;99.90;;;;;;5116631;27;20028;-78
2021/10/06 12:42:23;;;;;;;1.65;0.60;;;12.60;99.90;;;;;;5068883;28;20028;-79
2021/10/06 12:44:50;;;;;;;1.02;0.43;;;12.80;99.90;;;;;;5102702;28;20028;-77